Time,TemperatureF,DewpointF,PressureIn,WindDirection,WindDirectionDegrees,WindSpeedMPH,WindSpeedGustMPH,Humidity,HourlyPrecipIn,Conditions,Clouds,dailyrainin,SoftwareType,DateUTC
2013-01-30 00:00:00,35.9,35.0,30.12,SSW,196,0.0,-999.0,96,-99.99,,,0.03,weatherlink.com 1.10,2013-01-30 05:00:00,
2013-01-30 09:27:00,41.1,41.0,29.87,SSW,196,0.0,-999.0,98,-99.99,,,0.03,weatherlink.com 1.10,2013-01-30 14:27:00,
2013-01-30 09:32:00,41.2,41.0,29.86,SSW,196,0.0,-999.0,98,-99.99,,,0.03,weatherlink.com 1.10,2013-01-30 14:32:00,
2013-01-30 09:47:00,44.5,44.0,29.86,SSW,196,0.0,-999.0,98,-99.99,,,0.03,weatherlink.com 1.10,2013-01-30 14:47:00,
2013-01-30 10:02:00,45.4,45.0,29.85,NNE,30,0.0,-999.0,98,-99.99,,,0.03,weatherlink.com 1.10,2013-01-30 15:02:00,
2013-01-30 10:17:00,45.9,45.0,29.84,South,188,0.0,-999.0,98,-99.99,,,0.03,weatherlink.com 1.10,2013-01-30 15:17:00,
2013-01-30 10:32:00,47.3,47.0,29.83,SSE,164,5.0,-999.0,98,-99.99,,,0.03,weatherlink.com 1.10,2013-01-30 15:32:00,
2013-01-30 10:48:00,48.3,48.0,29.81,SSW,202,0.0,-999.0,98,-99.99,,,0.03,weatherlink.com 1.10,2013-01-30 15:48:00,
2013-01-30 11:03:00,48.8,48.0,29.79,South,179,2.0,-999.0,98,-99.99,,,0.03,weatherlink.com 1.10,2013-01-30 16:03:00,
2013-01-30 11:18:00,49.4,49.0,29.79,South,170,2.0,-999.0,98,-99.99,,,0.03,weatherlink.com 1.10,2013-01-30 16:18:00,
2013-01-30 11:33:00,49.9,49.0,29.78,SSE,168,2.0,-999.0,98,-99.99,,,0.03,weatherlink.com 1.10,2013-01-30 16:33:00,
2013-01-30 11:48:00,50.0,50.0,29.77,South,169,4.0,-999.0,98,-99.99,,,0.00,weatherlink.com 1.10,2013-01-30 16:48:00,
2013-01-30 12:03:00,50.3,50.0,29.75,South,172,0.0,-999.0,98,-99.99,,,0.00,weatherlink.com 1.10,2013-01-30 17:03:00,
2013-01-30 12:18:00,50.8,50.0,29.74,SE,144,1.0,-999.0,98,-99.99,,,0.00,weatherlink.com 1.10,2013-01-30 17:18:00,
2013-01-30 12:33:00,51.5,51.0,29.72,SSE,159,0.0,-999.0,98,-99.99,,,0.00,weatherlink.com 1.10,2013-01-30 17:33:00,
2013-01-30 12:48:00,52.4,52.0,29.72,South,169,0.0,-999.0,98,-99.99,,,0.00,weatherlink.com 1.10,2013-01-30 17:48:00,
2013-01-30 13:04:00,53.2,53.0,29.71,South,177,2.0,-999.0,98,-99.99,,,0.00,weatherlink.com 1.10,2013-01-30 18:04:00,
2013-01-30 13:19:00,53.4,53.0,29.70,South,175,2.0,-999.0,97,-99.99,,,0.00,weatherlink.com 1.10,2013-01-30 18:19:00,
2013-01-30 13:34:00,53.5,52.0,29.69,South,179,4.0,-999.0,96,-99.99,,,0.00,weatherlink.com 1.10,2013-01-30 18:34:00,
2013-01-30 13:49:00,54.1,53.0,29.68,South,186,1.0,-999.0,95,-99.99,,,0.00,weatherlink.com 1.10,2013-01-30 18:49:00,
2013-01-30 14:04:00,54.1,53.0,29.68,SSW,196,0.0,-999.0,94,-99.99,,,0.00,weatherlink.com 1.10,2013-01-30 19:04:00,
2013-01-30 14:19:00,53.9,52.0,29.67,SSW,197,2.0,-999.0,94,-99.99,,,0.00,weatherlink.com 1.10,2013-01-30 19:19:00,
2013-01-30 14:34:00,53.8,52.0,29.65,SSE,155,2.0,-999.0,94,-99.99,,,0.00,weatherlink.com 1.10,2013-01-30 19:34:00,
2013-01-30 14:49:00,53.9,52.0,29.65,South,174,0.0,-999.0,94,-99.99,,,0.00,weatherlink.com 1.10,2013-01-30 19:49:00,
2013-01-30 15:04:00,53.5,52.0,29.65,SSW,202,5.0,-999.0,94,-99.99,,,0.00,weatherlink.com 1.10,2013-01-30 20:04:00,
2013-01-30 15:19:00,53.4,52.0,29.65,SSW,212,0.0,-999.0,94,-99.99,,,0.00,weatherlink.com 1.10,2013-01-30 20:19:00,
2013-01-30 15:35:00,53.4,52.0,29.65,South,182,3.0,-999.0,95,-99.99,,,0.00,weatherlink.com 1.10,2013-01-30 20:35:00,
2013-01-30 15:50:00,53.4,52.0,29.65,South,170,0.0,-999.0,95,-99.99,,,0.00,weatherlink.com 1.10,2013-01-30 20:50:00,
2013-01-30 16:05:00,53.4,52.0,29.65,SSW,202,0.0,-999.0,95,-99.99,,,0.00,weatherlink.com 1.10,2013-01-30 21:05:00,
2013-01-30 16:20:00,53.5,52.0,29.64,SSW,201,0.0,-999.0,95,-99.99,,,0.00,weatherlink.com 1.10,2013-01-30 21:20:00,
2013-01-30 16:35:00,53.2,52.0,29.62,SSE,157,0.0,-999.0,94,-99.99,,,0.00,weatherlink.com 1.10,2013-01-30 21:35:00,
2013-01-30 16:51:00,53.1,52.0,29.61,South,175,0.0,-999.0,95,-99.99,,,0.00,weatherlink.com 1.10,2013-01-30 21:51:00,
2013-01-30 17:06:00,53.1,52.0,29.61,SSW,193,3.0,-999.0,95,-99.99,,,0.00,weatherlink.com 1.10,2013-01-30 22:06:00,
2013-01-30 17:21:00,53.3,52.0,29.60,SSE,161,0.0,-999.0,95,-99.99,,,0.00,weatherlink.com 1.10,2013-01-30 22:21:00,
2013-01-30 17:51:00,52.8,52.0,29.60,SSW,213,0.0,-999.0,95,-99.99,,,0.00,weatherlink.com 1.10,2013-01-30 22:51:00,
2013-01-30 18:07:00,52.7,51.0,29.60,SE,146,0.0,-999.0,95,-99.99,,,0.01,weatherlink.com 1.10,2013-01-30 23:07:00,
2013-01-30 18:22:00,52.6,52.0,29.62,South,182,3.0,-999.0,96,-99.99,,,0.02,weatherlink.com 1.10,2013-01-30 23:22:00,
2013-01-30 18:37:00,52.3,51.0,29.61,SSE,168,0.0,-999.0,96,-99.99,,,0.02,weatherlink.com 1.10,2013-01-30 23:37:00,
2013-01-30 18:52:00,52.2,51.0,29.60,South,173,1.0,-999.0,96,-99.99,,,0.02,weatherlink.com 1.10,2013-01-30 23:52:00,
2013-01-30 19:07:00,52.2,51.0,29.60,SSE,164,0.0,-999.0,96,-99.99,,,0.02,weatherlink.com 1.10,2013-01-31 00:07:00,
2013-01-30 19:22:00,52.4,52.0,29.59,SSE,164,0.0,-999.0,97,-99.99,,,0.02,weatherlink.com 1.10,2013-01-31 00:22:00,
2013-01-30 19:37:00,52.3,52.0,29.59,SSE,164,0.0,-999.0,97,-99.99,,,0.02,weatherlink.com 1.10,2013-01-31 00:37:00,
2013-01-30 19:52:00,52.3,52.0,29.58,SSE,164,0.0,-999.0,97,-99.99,,,0.02,weatherlink.com 1.10,2013-01-31 00:52:00,
2013-01-30 20:07:00,52.3,52.0,29.58,SSE,164,0.0,-999.0,97,-99.99,,,0.02,weatherlink.com 1.10,2013-01-31 01:07:00,
2013-01-30 20:23:00,52.1,51.0,29.57,SSE,164,0.0,-999.0,97,-99.99,,,0.04,weatherlink.com 1.10,2013-01-31 01:23:00,
2013-01-30 20:37:00,52.3,52.0,29.55,SSE,164,0.0,-999.0,97,-99.99,,,0.04,weatherlink.com 1.10,2013-01-31 01:37:00,
2013-01-30 20:53:00,52.6,52.0,29.55,SSE,164,0.0,-999.0,97,-99.99,,,0.05,weatherlink.com 1.10,2013-01-31 01:53:00,
2013-01-30 21:08:00,52.1,51.0,29.54,SSE,164,0.0,-999.0,97,-99.99,,,0.06,weatherlink.com 1.10,2013-01-31 02:08:00,
2013-01-30 21:23:00,51.5,51.0,29.53,SSE,164,0.0,-999.0,97,-99.99,,,0.08,weatherlink.com 1.10,2013-01-31 02:23:00,
2013-01-30 21:38:00,51.1,50.0,29.52,SSE,164,0.0,-999.0,97,-99.99,,,0.10,weatherlink.com 1.10,2013-01-31 02:38:00,
2013-01-30 21:53:00,50.8,50.0,29.51,SSE,164,0.0,-999.0,97,-99.99,,,0.10,weatherlink.com 1.10,2013-01-31 02:53:00,
2013-01-30 22:08:00,50.7,50.0,29.48,SSE,164,1.0,-999.0,97,-99.99,,,0.10,weatherlink.com 1.10,2013-01-31 03:08:00,
2013-01-30 22:23:00,50.9,50.0,29.46,SSE,165,0.0,-999.0,97,-99.99,,,0.10,weatherlink.com 1.10,2013-01-31 03:23:00,